sensor_id;sensor_type;location;lat;lon;timestamp;temperature;humidity
12655;DHT22;6392;44.644;11.448;2024-02-14T00:02:59;7.10;99.90
12655;DHT22;6392;44.644;11.448;2024-02-14T00:05:26;7.00;99.90
12655;DHT22;6392;44.644;11.448;2024-02-14T00:07:54;7.00;99.90
12655;DHT22;6392;44.644;11.448;2024-02-14T00:10:21;7.10;99.90
12655;DHT22;6392;44.644;11.448;2024-02-14T00:12:49;7.20;99.90
12655;DHT22;6392;44.644;11.448;2024-02-14T00:15:18;7.20;99.90
12655;DHT22;6392;44.644;11.448;2024-02-14T00:17:45;7.20;99.90
12655;DHT22;6392;44.644;11.448;2024-02-14T00:20:12;7.30;99.90
12655;DHT22;6392;44.644;11.448;2024-02-14T00:22:39;7.30;99.90
12655;DHT22;6392;44.644;11.448;2024-02-14T00:25:07;7.30;99.90
12655;DHT22;6392;44.644;11.448;2024-02-14T00:27:34;7.40;99.90
12655;DHT22;6392;44.644;11.448;2024-02-14T00:30:02;7.40;99.90
12655;DHT22;6392;44.644;11.448;2024-02-14T00:32:30;7.30;99.90
12655;DHT22;6392;44.644;11.448;2024-02-14T00:34:57;7.10;99.90
12655;DHT22;6392;44.644;11.448;2024-02-14T00:37:24;7.00;99.90
12655;DHT22;6392;44.644;11.448;2024-02-14T00:39:51;6.90;99.90
12655;DHT22;6392;44.644;11.448;2024-02-14T00:42:19;7.00;99.90
12655;DHT22;6392;44.644;11.448;2024-02-14T00:44:46;7.10;99.90
12655;DHT22;6392;44.644;11.448;2024-02-14T00:47:13;7.10;99.90
12655;DHT22;6392;44.644;11.448;2024-02-14T00:49:41;7.10;99.90
12655;DHT22;6392;44.644;11.448;2024-02-14T00:52:09;7.20;99.90
12655;DHT22;6392;44.644;11.448;2024-02-14T00:54:36;7.20;99.90
12655;DHT22;6392;44.644;11.448;2024-02-14T00:57:03;7.30;99.90
12655;DHT22;6392;44.644;11.448;2024-02-14T00:59:30;7.30;99.90
12655;DHT22;6392;44.644;11.448;2024-02-14T01:01:57;7.30;99.90
12655;DHT22;6392;44.644;11.448;2024-02-14T01:04:24;7.30;99.90
12655;DHT22;6392;44.644;11.448;2024-02-14T01:06:53;7.20;99.90
12655;DHT22;6392;44.644;11.448;2024-02-14T01:09:20;7.30;99.90
12655;DHT22;6392;44.644;11.448;2024-02-14T01:11:47;7.30;99.90
12655;DHT22;6392;44.644;11.448;2024-02-14T01:14:14;7.20;99.90
12655;DHT22;6392;44.644;11.448;2024-02-14T01:16:45;7.20;99.90
12655;DHT22;6392;44.644;11.448;2024-02-14T01:19:12;7.10;99.90
12655;DHT22;6392;44.644;11.448;2024-02-14T01:21:40;7.00;99.90
12655;DHT22;6392;44.644;11.448;2024-02-14T01:24:09;6.80;99.90
12655;DHT22;6392;44.644;11.448;2024-02-14T01:26:36;6.60;99.90
12655;DHT22;6392;44.644;11.448;2024-02-14T01:29:03;6.60;99.90
12655;DHT22;6392;44.644;11.448;2024-02-14T01:31:31;6.60;99.90
12655;DHT22;6392;44.644;11.448;2024-02-14T01:33:58;6.50;99.90
12655;DHT22;6392;44.644;11.448;2024-02-14T01:36:27;6.50;99.90
12655;DHT22;6392;44.644;11.448;2024-02-14T01:38:54;6.40;99.90
12655;DHT22;6392;44.644;11.448;2024-02-14T01:41:22;6.40;99.90
12655;DHT22;6392;44.644;11.448;2024-02-14T01:43:50;6.40;99.90
12655;DHT22;6392;44.644;11.448;2024-02-14T01:46:17;6.30;99.90
12655;DHT22;6392;44.644;11.448;2024-02-14T01:48:45;6.30;99.90
12655;DHT22;6392;44.644;11.448;2024-02-14T01:51:13;6.20;99.90
12655;DHT22;6392;44.644;11.448;2024-02-14T01:53:43;6.30;99.90
12655;DHT22;6392;44.644;11.448;2024-02-14T01:56:10;6.30;99.90
12655;DHT22;6392;44.644;11.448;2024-02-14T01:58:39;6.20;99.90
12655;DHT22;6392;44.644;11.448;2024-02-14T02:01:06;6.20;99.90
12655;DHT22;6392;44.644;11.448;2024-02-14T02:03:35;6.20;99.90
12655;DHT22;6392;44.644;11.448;2024-02-14T02:06:03;6.30;99.90
12655;DHT22;6392;44.644;11.448;2024-02-14T02:08:31;6.40;99.90
12655;DHT22;6392;44.644;11.448;2024-02-14T02:10:59;6.40;99.90
12655;DHT22;6392;44.644;11.448;2024-02-14T02:13:26;6.50;99.90
12655;DHT22;6392;44.644;11.448;2024-02-14T02:15:54;6.50;99.90
12655;DHT22;6392;44.644;11.448;2024-02-14T02:18:22;6.50;99.90
12655;DHT22;6392;44.644;11.448;2024-02-14T02:20:51;6.50;99.90
12655;DHT22;6392;44.644;11.448;2024-02-14T02:23:19;6.50;99.90
12655;DHT22;6392;44.644;11.448;2024-02-14T02:25:47;6.50;99.90
12655;DHT22;6392;44.644;11.448;2024-02-14T02:28:15;6.60;99.90
12655;DHT22;6392;44.644;11.448;2024-02-14T02:30:42;6.60;99.90
12655;DHT22;6392;44.644;11.448;2024-02-14T02:33:11;6.60;99.90
12655;DHT22;6392;44.644;11.448;2024-02-14T02:35:41;6.60;99.90
12655;DHT22;6392;44.644;11.448;2024-02-14T02:38:10;6.60;99.90
12655;DHT22;6392;44.644;11.448;2024-02-14T02:40:39;6.60;99.90
12655;DHT22;6392;44.644;11.448;2024-02-14T02:43:06;6.50;99.90
12655;DHT22;6392;44.644;11.448;2024-02-14T02:45:33;6.50;99.90
12655;DHT22;6392;44.644;11.448;2024-02-14T02:48:00;6.50;99.90
12655;DHT22;6392;44.644;11.448;2024-02-14T02:50:28;6.50;99.90
12655;DHT22;6392;44.644;11.448;2024-02-14T02:52:55;6.50;99.90
12655;DHT22;6392;44.644;11.448;2024-02-14T02:55:23;6.50;99.90
12655;DHT22;6392;44.644;11.448;2024-02-14T02:57:51;6.50;99.90
12655;DHT22;6392;44.644;11.448;2024-02-14T03:00:18;6.50;99.90
12655;DHT22;6392;44.644;11.448;2024-02-14T03:02:47;6.50;99.90
12655;DHT22;6392;44.644;11.448;2024-02-14T03:05:14;6.60;99.90
12655;DHT22;6392;44.644;11.448;2024-02-14T03:07:44;6.60;99.90
12655;DHT22;6392;44.644;11.448;2024-02-14T03:10:13;6.70;99.90
12655;DHT22;6392;44.644;11.448;2024-02-14T03:12:45;6.80;99.90
12655;DHT22;6392;44.644;11.448;2024-02-14T03:15:14;6.90;99.90
12655;DHT22;6392;44.644;11.448;2024-02-14T03:17:41;6.80;99.90
12655;DHT22;6392;44.644;11.448;2024-02-14T03:20:09;6.70;99.90
12655;DHT22;6392;44.644;11.448;2024-02-14T03:22:38;6.50;99.90
12655;DHT22;6392;44.644;11.448;2024-02-14T03:25:12;6.40;99.90
12655;DHT22;6392;44.644;11.448;2024-02-14T03:27:40;6.40;99.90
12655;DHT22;6392;44.644;11.448;2024-02-14T03:30:08;6.50;99.90
12655;DHT22;6392;44.644;11.448;2024-02-14T03:32:36;6.50;99.90
12655;DHT22;6392;44.644;11.448;2024-02-14T03:35:04;6.50;99.90
12655;DHT22;6392;44.644;11.448;2024-02-14T03:37:32;6.50;99.90
12655;DHT22;6392;44.644;11.448;2024-02-14T03:39:59;6.40;99.90
12655;DHT22;6392;44.644;11.448;2024-02-14T03:42:26;6.30;99.90
12655;DHT22;6392;44.644;11.448;2024-02-14T03:44:53;6.20;99.90
12655;DHT22;6392;44.644;11.448;2024-02-14T03:47:28;6.20;99.90
12655;DHT22;6392;44.644;11.448;2024-02-14T03:49:58;6.20;99.90
12655;DHT22;6392;44.644;11.448;2024-02-14T03:52:25;6.30;99.90
12655;DHT22;6392;44.644;11.448;2024-02-14T03:54:52;6.30;99.90
12655;DHT22;6392;44.644;11.448;2024-02-14T03:57:19;6.20;99.90
12655;DHT22;6392;44.644;11.448;2024-02-14T03:59:46;6.00;99.90
12655;DHT22;6392;44.644;11.448;2024-02-14T04:02:14;5.80;99.90
12655;DHT22;6392;44.644;11.448;2024-02-14T04:04:41;5.70;99.90
12655;DHT22;6392;44.644;11.448;2024-02-14T04:07:10;5.60;99.90
12655;DHT22;6392;44.644;11.448;2024-02-14T04:09:37;5.60;99.90
12655;DHT22;6392;44.644;11.448;2024-02-14T04:12:05;5.60;99.90
12655;DHT22;6392;44.644;11.448;2024-02-14T04:14:32;5.60;99.90
12655;DHT22;6392;44.644;11.448;2024-02-14T04:16:59;5.50;99.90
12655;DHT22;6392;44.644;11.448;2024-02-14T04:19:26;5.40;99.90
12655;DHT22;6392;44.644;11.448;2024-02-14T04:21:54;5.40;99.90
12655;DHT22;6392;44.644;11.448;2024-02-14T04:24:22;5.40;99.90
12655;DHT22;6392;44.644;11.448;2024-02-14T04:26:49;5.30;99.90
12655;DHT22;6392;44.644;11.448;2024-02-14T04:29:16;5.30;99.90
12655;DHT22;6392;44.644;11.448;2024-02-14T04:31:43;5.30;99.90
12655;DHT22;6392;44.644;11.448;2024-02-14T04:34:10;5.30;99.90
12655;DHT22;6392;44.644;11.448;2024-02-14T04:36:39;5.30;99.90
12655;DHT22;6392;44.644;11.448;2024-02-14T04:39:07;5.30;99.90
12655;DHT22;6392;44.644;11.448;2024-02-14T04:41:36;5.30;99.90
12655;DHT22;6392;44.644;11.448;2024-02-14T04:44:04;5.30;99.90
12655;DHT22;6392;44.644;11.448;2024-02-14T04:46:32;5.30;99.90
12655;DHT22;6392;44.644;11.448;2024-02-14T04:49:00;5.30;99.90
12655;DHT22;6392;44.644;11.448;2024-02-14T04:51:28;5.30;99.90
12655;DHT22;6392;44.644;11.448;2024-02-14T04:53:55;5.30;99.90
12655;DHT22;6392;44.644;11.448;2024-02-14T04:56:24;5.30;99.90
12655;DHT22;6392;44.644;11.448;2024-02-14T04:58:54;5.30;99.90
12655;DHT22;6392;44.644;11.448;2024-02-14T05:01:21;5.30;99.90
12655;DHT22;6392;44.644;11.448;2024-02-14T05:03:48;5.30;99.90
12655;DHT22;6392;44.644;11.448;2024-02-14T05:06:16;5.40;99.90
12655;DHT22;6392;44.644;11.448;2024-02-14T05:08:43;5.40;99.90
12655;DHT22;6392;44.644;11.448;2024-02-14T05:11:10;5.40;99.90
12655;DHT22;6392;44.644;11.448;2024-02-14T05:13:37;5.40;99.90
12655;DHT22;6392;44.644;11.448;2024-02-14T05:16:08;5.40;99.90
12655;DHT22;6392;44.644;11.448;2024-02-14T05:18:36;5.40;99.90
12655;DHT22;6392;44.644;11.448;2024-02-14T05:21:05;5.20;99.90
12655;DHT22;6392;44.644;11.448;2024-02-14T05:23:33;5.10;99.90
12655;DHT22;6392;44.644;11.448;2024-02-14T05:26:00;5.00;99.90
12655;DHT22;6392;44.644;11.448;2024-02-14T05:28:28;5.00;99.90
12655;DHT22;6392;44.644;11.448;2024-02-14T05:30:56;5.00;99.90
12655;DHT22;6392;44.644;11.448;2024-02-14T05:33:24;4.90;99.90
12655;DHT22;6392;44.644;11.448;2024-02-14T05:35:52;4.90;99.90
12655;DHT22;6392;44.644;11.448;2024-02-14T05:38:19;4.80;99.90
12655;DHT22;6392;44.644;11.448;2024-02-14T05:40:46;4.80;99.90
12655;DHT22;6392;44.644;11.448;2024-02-14T05:43:14;4.80;99.90
12655;DHT22;6392;44.644;11.448;2024-02-14T05:45:41;4.80;99.90
12655;DHT22;6392;44.644;11.448;2024-02-14T05:48:09;4.80;99.90
12655;DHT22;6392;44.644;11.448;2024-02-14T05:50:37;4.80;99.90
12655;DHT22;6392;44.644;11.448;2024-02-14T05:53:04;4.80;99.90
12655;DHT22;6392;44.644;11.448;2024-02-14T05:55:31;4.80;99.90
12655;DHT22;6392;44.644;11.448;2024-02-14T05:57:59;4.80;99.90
12655;DHT22;6392;44.644;11.448;2024-02-14T06:00:26;4.80;99.90
12655;DHT22;6392;44.644;11.448;2024-02-14T06:02:53;4.80;99.90
12655;DHT22;6392;44.644;11.448;2024-02-14T06:05:20;4.80;99.90
12655;DHT22;6392;44.644;11.448;2024-02-14T06:07:49;4.80;99.90
12655;DHT22;6392;44.644;11.448;2024-02-14T06:10:17;4.80;99.90
12655;DHT22;6392;44.644;11.448;2024-02-14T06:12:44;4.80;99.90
12655;DHT22;6392;44.644;11.448;2024-02-14T06:15:13;4.90;99.90
12655;DHT22;6392;44.644;11.448;2024-02-14T06:17:40;4.80;99.90
12655;DHT22;6392;44.644;11.448;2024-02-14T06:20:08;4.80;99.90
12655;DHT22;6392;44.644;11.448;2024-02-14T06:22:35;4.70;99.90
12655;DHT22;6392;44.644;11.448;2024-02-14T06:25:05;4.70;99.90
12655;DHT22;6392;44.644;11.448;2024-02-14T06:27:32;4.70;99.90
12655;DHT22;6392;44.644;11.448;2024-02-14T06:29:59;4.60;99.90
12655;DHT22;6392;44.644;11.448;2024-02-14T06:32:26;4.60;99.90
12655;DHT22;6392;44.644;11.448;2024-02-14T06:34:53;4.60;99.90
12655;DHT22;6392;44.644;11.448;2024-02-14T06:37:20;4.60;99.90
12655;DHT22;6392;44.644;11.448;2024-02-14T06:39:47;4.60;99.90
12655;DHT22;6392;44.644;11.448;2024-02-14T06:42:17;4.70;99.90
12655;DHT22;6392;44.644;11.448;2024-02-14T06:44:45;4.60;99.90
12655;DHT22;6392;44.644;11.448;2024-02-14T06:47:12;4.60;99.90
12655;DHT22;6392;44.644;11.448;2024-02-14T06:49:39;4.70;99.90
12655;DHT22;6392;44.644;11.448;2024-02-14T06:52:06;4.70;99.90
12655;DHT22;6392;44.644;11.448;2024-02-14T06:54:33;4.70;99.90
12655;DHT22;6392;44.644;11.448;2024-02-14T06:57:00;4.80;99.90
12655;DHT22;6392;44.644;11.448;2024-02-14T06:59:29;4.80;99.90
12655;DHT22;6392;44.644;11.448;2024-02-14T07:01:56;4.90;99.90
12655;DHT22;6392;44.644;11.448;2024-02-14T07:04:23;5.00;99.90
12655;DHT22;6392;44.644;11.448;2024-02-14T07:06:52;5.10;99.90
12655;DHT22;6392;44.644;11.448;2024-02-14T07:09:20;5.10;99.90
12655;DHT22;6392;44.644;11.448;2024-02-14T07:11:47;5.10;99.90
12655;DHT22;6392;44.644;11.448;2024-02-14T07:14:14;5.10;99.90
12655;DHT22;6392;44.644;11.448;2024-02-14T07:16:43;5.10;99.90
12655;DHT22;6392;44.644;11.448;2024-02-14T07:19:10;5.10;99.90
12655;DHT22;6392;44.644;11.448;2024-02-14T07:21:37;5.10;99.90
12655;DHT22;6392;44.644;11.448;2024-02-14T07:24:05;5.20;99.90
12655;DHT22;6392;44.644;11.448;2024-02-14T07:26:32;5.30;99.90
12655;DHT22;6392;44.644;11.448;2024-02-14T07:28:59;5.40;99.90
12655;DHT22;6392;44.644;11.448;2024-02-14T07:31:29;5.40;99.90
12655;DHT22;6392;44.644;11.448;2024-02-14T07:34:00;5.50;99.90
12655;DHT22;6392;44.644;11.448;2024-02-14T07:36:28;5.50;99.90
12655;DHT22;6392;44.644;11.448;2024-02-14T07:38:56;5.60;99.90
12655;DHT22;6392;44.644;11.448;2024-02-14T07:41:23;5.70;99.90
12655;DHT22;6392;44.644;11.448;2024-02-14T07:43:50;5.70;99.90
12655;DHT22;6392;44.644;11.448;2024-02-14T07:46:18;5.70;99.90
12655;DHT22;6392;44.644;11.448;2024-02-14T07:48:45;5.80;99.90
12655;DHT22;6392;44.644;11.448;2024-02-14T07:51:13;5.90;99.90
12655;DHT22;6392;44.644;11.448;2024-02-14T07:53:41;5.90;99.90
12655;DHT22;6392;44.644;11.448;2024-02-14T07:56:08;5.90;99.90
12655;DHT22;6392;44.644;11.448;2024-02-14T07:58:35;6.00;99.90
12655;DHT22;6392;44.644;11.448;2024-02-14T08:01:02;6.20;99.90
12655;DHT22;6392;44.644;11.448;2024-02-14T08:03:30;6.30;99.90
12655;DHT22;6392;44.644;11.448;2024-02-14T08:05:56;6.40;99.90
12655;DHT22;6392;44.644;11.448;2024-02-14T08:08:26;6.50;99.90
12655;DHT22;6392;44.644;11.448;2024-02-14T08:10:53;6.60;99.90
12655;DHT22;6392;44.644;11.448;2024-02-14T08:13:21;6.70;99.90
12655;DHT22;6392;44.644;11.448;2024-02-14T08:15:48;6.80;99.90
12655;DHT22;6392;44.644;11.448;2024-02-14T08:18:15;6.90;99.90
12655;DHT22;6392;44.644;11.448;2024-02-14T08:20:42;7.00;99.90
12655;DHT22;6392;44.644;11.448;2024-02-14T08:23:09;7.10;99.90
12655;DHT22;6392;44.644;11.448;2024-02-14T08:25:37;7.10;99.90
12655;DHT22;6392;44.644;11.448;2024-02-14T08:28:05;7.20;99.90
12655;DHT22;6392;44.644;11.448;2024-02-14T08:30:33;7.30;99.90
12655;DHT22;6392;44.644;11.448;2024-02-14T08:33:00;7.50;99.90
12655;DHT22;6392;44.644;11.448;2024-02-14T08:35:27;7.60;99.90
12655;DHT22;6392;44.644;11.448;2024-02-14T08:37:54;7.70;99.90
12655;DHT22;6392;44.644;11.448;2024-02-14T08:40:21;7.80;99.90
12655;DHT22;6392;44.644;11.448;2024-02-14T08:42:50;7.80;99.90
12655;DHT22;6392;44.644;11.448;2024-02-14T08:45:17;7.90;99.90
12655;DHT22;6392;44.644;11.448;2024-02-14T08:47:44;8.00;99.90
12655;DHT22;6392;44.644;11.448;2024-02-14T08:50:11;8.10;99.90
12655;DHT22;6392;44.644;11.448;2024-02-14T08:52:39;8.10;99.90
12655;DHT22;6392;44.644;11.448;2024-02-14T08:55:07;8.20;99.90
12655;DHT22;6392;44.644;11.448;2024-02-14T08:57:40;8.30;99.90
12655;DHT22;6392;44.644;11.448;2024-02-14T09:00:09;8.30;99.90
12655;DHT22;6392;44.644;11.448;2024-02-14T09:02:38;8.40;99.90
12655;DHT22;6392;44.644;11.448;2024-02-14T09:05:06;8.50;99.90
12655;DHT22;6392;44.644;11.448;2024-02-14T09:07:33;8.50;99.90
12655;DHT22;6392;44.644;11.448;2024-02-14T09:10:02;8.60;99.90
12655;DHT22;6392;44.644;11.448;2024-02-14T09:12:29;8.70;99.90
12655;DHT22;6392;44.644;11.448;2024-02-14T09:14:57;8.80;99.90
12655;DHT22;6392;44.644;11.448;2024-02-14T09:17:26;8.90;99.90
12655;DHT22;6392;44.644;11.448;2024-02-14T09:19:53;9.00;99.90
12655;DHT22;6392;44.644;11.448;2024-02-14T09:22:20;9.10;99.90
12655;DHT22;6392;44.644;11.448;2024-02-14T09:24:47;9.20;99.90
12655;DHT22;6392;44.644;11.448;2024-02-14T09:27:14;9.20;99.90
12655;DHT22;6392;44.644;11.448;2024-02-14T09:29:42;9.30;99.90
12655;DHT22;6392;44.644;11.448;2024-02-14T09:32:08;9.40;99.90
12655;DHT22;6392;44.644;11.448;2024-02-14T09:34:37;9.40;99.90
12655;DHT22;6392;44.644;11.448;2024-02-14T09:37:04;9.50;99.90
12655;DHT22;6392;44.644;11.448;2024-02-14T09:39:32;9.60;99.90
12655;DHT22;6392;44.644;11.448;2024-02-14T09:42:06;9.70;99.90
12655;DHT22;6392;44.644;11.448;2024-02-14T09:44:35;9.70;99.90
12655;DHT22;6392;44.644;11.448;2024-02-14T09:47:05;9.80;99.90
12655;DHT22;6392;44.644;11.448;2024-02-14T09:49:32;9.80;99.90
12655;DHT22;6392;44.644;11.448;2024-02-14T09:52:03;9.90;99.90
12655;DHT22;6392;44.644;11.448;2024-02-14T09:54:31;9.90;99.90
12655;DHT22;6392;44.644;11.448;2024-02-14T09:57:00;10.00;99.90
12655;DHT22;6392;44.644;11.448;2024-02-14T09:59:29;10.00;99.90
12655;DHT22;6392;44.644;11.448;2024-02-14T10:01:56;10.10;99.90
12655;DHT22;6392;44.644;11.448;2024-02-14T10:04:23;10.20;99.90
12655;DHT22;6392;44.644;11.448;2024-02-14T10:06:51;10.20;99.90
12655;DHT22;6392;44.644;11.448;2024-02-14T10:09:23;10.40;99.90
12655;DHT22;6392;44.644;11.448;2024-02-14T10:11:51;10.50;99.90
12655;DHT22;6392;44.644;11.448;2024-02-14T10:14:18;10.50;99.90
12655;DHT22;6392;44.644;11.448;2024-02-14T10:16:45;10.60;99.90
12655;DHT22;6392;44.644;11.448;2024-02-14T10:19:16;10.70;99.90
12655;DHT22;6392;44.644;11.448;2024-02-14T10:21:43;10.80;99.90
12655;DHT22;6392;44.644;11.448;2024-02-14T10:24:10;10.80;99.90
12655;DHT22;6392;44.644;11.448;2024-02-14T10:26:38;10.90;99.90
12655;DHT22;6392;44.644;11.448;2024-02-14T10:29:06;11.00;99.90
12655;DHT22;6392;44.644;11.448;2024-02-14T10:31:36;11.00;99.90
12655;DHT22;6392;44.644;11.448;2024-02-14T10:34:04;11.10;99.90
12655;DHT22;6392;44.644;11.448;2024-02-14T10:36:34;11.10;99.90
12655;DHT22;6392;44.644;11.448;2024-02-14T10:39:02;11.20;99.90
12655;DHT22;6392;44.644;11.448;2024-02-14T10:41:30;11.30;99.90
12655;DHT22;6392;44.644;11.448;2024-02-14T10:44:02;11.30;99.90
12655;DHT22;6392;44.644;11.448;2024-02-14T10:46:31;11.40;99.90
12655;DHT22;6392;44.644;11.448;2024-02-14T10:49:02;11.40;99.90
12655;DHT22;6392;44.644;11.448;2024-02-14T10:51:31;11.50;99.90
12655;DHT22;6392;44.644;11.448;2024-02-14T10:54:01;11.50;99.90
12655;DHT22;6392;44.644;11.448;2024-02-14T10:56:32;11.60;99.90
12655;DHT22;6392;44.644;11.448;2024-02-14T10:58:59;11.60;99.90
12655;DHT22;6392;44.644;11.448;2024-02-14T11:01:29;11.70;99.90
12655;DHT22;6392;44.644;11.448;2024-02-14T11:03:59;11.70;99.90
12655;DHT22;6392;44.644;11.448;2024-02-14T11:06:26;11.80;99.90
12655;DHT22;6392;44.644;11.448;2024-02-14T11:08:58;11.80;99.90
12655;DHT22;6392;44.644;11.448;2024-02-14T11:11:29;11.90;99.90
12655;DHT22;6392;44.644;11.448;2024-02-14T11:13:57;12.00;99.90
12655;DHT22;6392;44.644;11.448;2024-02-14T11:16:25;12.10;99.90
12655;DHT22;6392;44.644;11.448;2024-02-14T11:19:06;12.10;99.90
12655;DHT22;6392;44.644;11.448;2024-02-14T11:21:36;12.10;99.90
12655;DHT22;6392;44.644;11.448;2024-02-14T11:24:07;12.20;99.90
12655;DHT22;6392;44.644;11.448;2024-02-14T11:26:39;12.20;99.90
12655;DHT22;6392;44.644;11.448;2024-02-14T11:29:06;12.20;99.90
12655;DHT22;6392;44.644;11.448;2024-02-14T11:31:33;12.30;99.90
12655;DHT22;6392;44.644;11.448;2024-02-14T11:34:05;12.30;99.90
12655;DHT22;6392;44.644;11.448;2024-02-14T11:36:35;12.30;99.90
12655;DHT22;6392;44.644;11.448;2024-02-14T11:39:03;12.40;99.90
12655;DHT22;6392;44.644;11.448;2024-02-14T11:41:32;12.50;99.90
12655;DHT22;6392;44.644;11.448;2024-02-14T11:44:01;12.50;99.90
12655;DHT22;6392;44.644;11.448;2024-02-14T11:46:30;12.60;99.90
12655;DHT22;6392;44.644;11.448;2024-02-14T11:48:58;12.60;99.90
12655;DHT22;6392;44.644;11.448;2024-02-14T11:51:28;12.70;99.90
12655;DHT22;6392;44.644;11.448;2024-02-14T11:53:56;12.70;99.90
12655;DHT22;6392;44.644;11.448;2024-02-14T11:56:30;12.80;99.90
12655;DHT22;6392;44.644;11.448;2024-02-14T11:58:59;12.90;99.90
12655;DHT22;6392;44.644;11.448;2024-02-14T12:01:30;13.00;99.90
12655;DHT22;6392;44.644;11.448;2024-02-14T12:03:58;13.00;99.90
12655;DHT22;6392;44.644;11.448;2024-02-14T12:06:27;13.10;99.90
12655;DHT22;6392;44.644;11.448;2024-02-14T12:08:57;13.10;99.90
12655;DHT22;6392;44.644;11.448;2024-02-14T12:11:27;13.20;99.90
12655;DHT22;6392;44.644;11.448;2024-02-14T12:13:54;13.20;99.90
12655;DHT22;6392;44.644;11.448;2024-02-14T12:16:22;13.30;99.90
12655;DHT22;6392;44.644;11.448;2024-02-14T12:18:49;13.30;99.90
12655;DHT22;6392;44.644;11.448;2024-02-14T12:21:33;13.40;99.90
12655;DHT22;6392;44.644;11.448;2024-02-14T12:24:01;13.50;99.90
12655;DHT22;6392;44.644;11.448;2024-02-14T12:26:30;13.50;99.90
12655;DHT22;6392;44.644;11.448;2024-02-14T12:28:57;13.60;99.90
12655;DHT22;6392;44.644;11.448;2024-02-14T12:31:25;13.60;99.90
12655;DHT22;6392;44.644;11.448;2024-02-14T12:33:53;13.70;99.90
12655;DHT22;6392;44.644;11.448;2024-02-14T12:36:21;13.70;99.90
12655;DHT22;6392;44.644;11.448;2024-02-14T12:38:49;13.80;99.90
12655;DHT22;6392;44.644;11.448;2024-02-14T12:41:18;13.90;99.90
12655;DHT22;6392;44.644;11.448;2024-02-14T12:43:45;14.00;99.90
12655;DHT22;6392;44.644;11.448;2024-02-14T12:46:14;14.10;99.90
12655;DHT22;6392;44.644;11.448;2024-02-14T12:48:41;14.20;99.90
12655;DHT22;6392;44.644;11.448;2024-02-14T12:51:08;14.30;99.90
12655;DHT22;6392;44.644;11.448;2024-02-14T12:53:35;14.50;99.90
12655;DHT22;6392;44.644;11.448;2024-02-14T12:56:04;14.60;99.90
12655;DHT22;6392;44.644;11.448;2024-02-14T12:58:32;14.70;99.90
12655;DHT22;6392;44.644;11.448;2024-02-14T13:01:00;14.70;99.90
12655;DHT22;6392;44.644;11.448;2024-02-14T13:03:31;14.80;99.90
12655;DHT22;6392;44.644;11.448;2024-02-14T13:05:59;14.90;99.90
12655;DHT22;6392;44.644;11.448;2024-02-14T13:08:27;15.00;99.90
12655;DHT22;6392;44.644;11.448;2024-02-14T13:10:54;15.10;99.90
12655;DHT22;6392;44.644;11.448;2024-02-14T13:13:24;15.20;99.90
12655;DHT22;6392;44.644;11.448;2024-02-14T13:15:51;15.30;99.90
12655;DHT22;6392;44.644;11.448;2024-02-14T13:18:18;15.50;99.90
12655;DHT22;6392;44.644;11.448;2024-02-14T13:20:45;15.60;99.90
12655;DHT22;6392;44.644;11.448;2024-02-14T13:23:12;15.70;99.90
12655;DHT22;6392;44.644;11.448;2024-02-14T13:25:40;15.90;99.90
12655;DHT22;6392;44.644;11.448;2024-02-14T13:28:07;15.90;99.90
12655;DHT22;6392;44.644;11.448;2024-02-14T13:30:36;16.00;99.90
12655;DHT22;6392;44.644;11.448;2024-02-14T13:33:03;16.20;99.90
12655;DHT22;6392;44.644;11.448;2024-02-14T13:35:30;16.30;99.90
12655;DHT22;6392;44.644;11.448;2024-02-14T13:37:57;16.30;99.90
12655;DHT22;6392;44.644;11.448;2024-02-14T13:40:24;16.40;99.90
12655;DHT22;6392;44.644;11.448;2024-02-14T13:42:51;16.60;99.90
12655;DHT22;6392;44.644;11.448;2024-02-14T13:45:18;16.70;99.90
12655;DHT22;6392;44.644;11.448;2024-02-14T13:47:47;16.80;99.90
12655;DHT22;6392;44.644;11.448;2024-02-14T13:50:16;16.90;99.90
12655;DHT22;6392;44.644;11.448;2024-02-14T13:52:43;17.00;99.90
12655;DHT22;6392;44.644;11.448;2024-02-14T13:55:10;17.10;99.90
12655;DHT22;6392;44.644;11.448;2024-02-14T13:57:38;17.20;99.90
12655;DHT22;6392;44.644;11.448;2024-02-14T14:00:07;17.30;99.90
12655;DHT22;6392;44.644;11.448;2024-02-14T14:02:35;17.50;99.90
12655;DHT22;6392;44.644;11.448;2024-02-14T14:05:08;17.60;99.90
12655;DHT22;6392;44.644;11.448;2024-02-14T14:07:35;17.80;99.90
12655;DHT22;6392;44.644;11.448;2024-02-14T14:10:03;17.90;99.90
12655;DHT22;6392;44.644;11.448;2024-02-14T14:12:30;18.10;99.90
12655;DHT22;6392;44.644;11.448;2024-02-14T14:14:57;18.20;99.90
12655;DHT22;6392;44.644;11.448;2024-02-14T14:17:24;18.30;99.90
12655;DHT22;6392;44.644;11.448;2024-02-14T14:19:52;18.30;99.90
12655;DHT22;6392;44.644;11.448;2024-02-14T14:22:21;18.40;99.90
12655;DHT22;6392;44.644;11.448;2024-02-14T14:24:49;18.30;99.90
12655;DHT22;6392;44.644;11.448;2024-02-14T14:27:17;18.40;99.90
12655;DHT22;6392;44.644;11.448;2024-02-14T14:29:47;18.50;99.90
12655;DHT22;6392;44.644;11.448;2024-02-14T14:32:14;18.60;99.90
12655;DHT22;6392;44.644;11.448;2024-02-14T14:34:42;18.60;99.90
12655;DHT22;6392;44.644;11.448;2024-02-14T14:37:09;18.50;99.90
12655;DHT22;6392;44.644;11.448;2024-02-14T14:39:38;18.50;99.90
12655;DHT22;6392;44.644;11.448;2024-02-14T14:42:06;18.60;99.90
12655;DHT22;6392;44.644;11.448;2024-02-14T14:44:34;18.60;99.90
12655;DHT22;6392;44.644;11.448;2024-02-14T14:47:02;18.50;99.90
12655;DHT22;6392;44.644;11.448;2024-02-14T14:49:30;18.60;99.90
12655;DHT22;6392;44.644;11.448;2024-02-14T14:51:57;18.50;99.90
12655;DHT22;6392;44.644;11.448;2024-02-14T14:54:24;18.50;99.90
12655;DHT22;6392;44.644;11.448;2024-02-14T14:56:53;18.30;99.90
12655;DHT22;6392;44.644;11.448;2024-02-14T14:59:21;18.30;99.90
12655;DHT22;6392;44.644;11.448;2024-02-14T15:01:48;18.20;99.90
12655;DHT22;6392;44.644;11.448;2024-02-14T15:04:16;18.30;99.90
12655;DHT22;6392;44.644;11.448;2024-02-14T15:06:43;18.20;99.90
12655;DHT22;6392;44.644;11.448;2024-02-14T15:09:10;18.20;99.90
12655;DHT22;6392;44.644;11.448;2024-02-14T15:11:37;18.10;99.90
12655;DHT22;6392;44.644;11.448;2024-02-14T15:14:05;18.10;99.90
12655;DHT22;6392;44.644;11.448;2024-02-14T15:16:33;18.10;99.90
12655;DHT22;6392;44.644;11.448;2024-02-14T15:19:00;18.10;99.90
12655;DHT22;6392;44.644;11.448;2024-02-14T15:21:27;18.00;99.90
12655;DHT22;6392;44.644;11.448;2024-02-14T15:23:54;17.90;99.90
12655;DHT22;6392;44.644;11.448;2024-02-14T15:26:21;17.90;99.90
12655;DHT22;6392;44.644;11.448;2024-02-14T15:28:50;17.90;99.90
12655;DHT22;6392;44.644;11.448;2024-02-14T15:31:40;18.10;99.90
12655;DHT22;6392;44.644;11.448;2024-02-14T15:34:24;18.40;99.90
12655;DHT22;6392;44.644;11.448;2024-02-14T15:36:51;18.50;99.90
12655;DHT22;6392;44.644;11.448;2024-02-14T15:39:18;18.40;99.90
12655;DHT22;6392;44.644;11.448;2024-02-14T15:41:45;18.30;99.90
12655;DHT22;6392;44.644;11.448;2024-02-14T15:44:12;18.10;99.90
12655;DHT22;6392;44.644;11.448;2024-02-14T15:46:40;17.80;99.90